Time;durP1;ratioP1;P1;durP2;ratioP2;P2;SDS_P1;SDS_P2;PMS_P1;PMS_P2;Temp;Humidity;BMP_temperature;BMP_pressure;BME280_temperature;BME280_humidity;BME280_pressure;Samples;Min_cycle;Max_cycle;Signal;HPM_P1;HPM_P2
2023/01/13 00:01:17;;;;;;;7.10;3.30;;;;;;;6.07;82.24;98333.39;105358;1251;99127;-66
2023/01/13 00:03:45;;;;;;;6.40;3.00;;;;;;;6.09;81.92;98333.52;105335;1256;108247;-66
2023/01/13 00:06:16;;;;;;;7.60;2.90;;;;;;;6.12;81.89;98327.95;105285;1258;97994;-66
2023/01/13 00:08:46;;;;;;;5.50;2.40;;;;;;;6.16;81.48;98321.02;105313;1257;98679;-65
2023/01/13 00:11:14;;;;;;;7.40;2.50;;;;;;;6.19;81.35;98311.34;105289;1256;111736;-66
2023/01/13 00:13:41;;;;;;;7.00;2.90;;;;;;;6.24;80.65;98312.64;105362;1257;97900;-66
2023/01/13 00:16:11;;;;;;;14.40;5.40;;;;;;;6.27;80.43;98313.15;105303;1257;97915;-66
2023/01/13 00:18:38;;;;;;;20.30;7.80;;;;;;;6.27;80.46;98307.98;105291;1257;98027;-65
2023/01/13 00:21:10;;;;;;;11.30;4.60;;;;;;;6.26;79.96;98311.79;105250;1265;98024;-65
2023/01/13 00:23:38;;;;;;;12.90;5.20;;;;;;;6.26;80.19;98314.36;105308;1257;112010;-65
2023/01/13 00:26:11;;;;;;;22.40;9.30;;;;;;;6.26;80.46;98313.70;105354;1257;98557;-65
2023/01/13 00:28:38;;;;;;;9.90;6.40;;;;;;;6.25;80.21;98311.91;105302;1257;107564;-65
2023/01/13 00:31:07;;;;;;;8.90;3.40;;;;;;;6.26;80.38;98310.88;105329;1257;99216;-65
2023/01/13 00:33:35;;;;;;;7.50;2.40;;;;;;;6.24;80.76;98308.95;105371;1257;98002;-65
2023/01/13 00:36:04;;;;;;;5.00;2.20;;;;;;;6.20;80.35;98310.31;105104;1255;111222;-65
2023/01/13 00:38:34;;;;;;;2.90;1.40;;;;;;;6.17;80.20;98309.91;105333;1257;98038;-63
2023/01/13 00:41:04;;;;;;;2.20;1.00;;;;;;;6.15;80.33;98315.55;105321;1265;108691;-63
2023/01/13 00:43:33;;;;;;;2.40;1.40;;;;;;;6.15;80.57;98317.98;105286;1257;97972;-63
2023/01/13 00:46:02;;;;;;;1.70;1.10;;;;;;;6.16;80.59;98316.08;105308;1257;99197;-63
2023/01/13 00:48:30;;;;;;;6.20;2.70;;;;;;;6.17;80.51;98318.45;105329;1261;111265;-63
2023/01/13 00:51:02;;;;;;;5.20;2.50;;;;;;;6.19;80.71;98321.15;105425;1254;98212;-63
2023/01/13 00:53:33;;;;;;;5.40;2.00;;;;;;;6.19;80.25;98320.15;105293;1257;108525;-63
2023/01/13 00:56:13;;;;;;;;;;;;;;;6.19;80.39;98315.98;105338;1257;97944;-63
2023/01/13 00:58:41;;;;;;;4.30;2.20;;;;;;;6.15;80.32;98312.00;105315;1256;99104;-64
2023/01/13 01:01:11;;;;;;;5.20;2.20;;;;;;;6.14;80.53;98309.73;105319;1251;112160;-63
2023/01/13 01:03:39;;;;;;;6.10;2.20;;;;;;;6.14;80.07;98310.98;105275;1254;97835;-64
2023/01/13 01:06:11;;;;;;;2.90;1.60;;;;;;;6.18;79.88;98314.74;105302;1256;108739;-63
2023/01/13 01:08:38;;;;;;;10.00;4.50;;;;;;;6.19;79.68;98313.22;105267;1256;97973;-64
2023/01/13 01:11:08;;;;;;;4.80;2.10;;;;;;;6.20;79.52;98315.37;105199;1257;98007;-64
2023/01/13 01:13:35;;;;;;;4.80;2.50;;;;;;;6.21;79.26;98307.57;105215;1257;109077;-64
2023/01/13 01:16:07;;;;;;;13.30;5.20;;;;;;;6.21;79.00;98304.36;105333;1257;98291;-65
2023/01/13 01:18:40;;;;;;;7.00;3.10;;;;;;;6.23;79.15;98296.05;105311;1265;108183;-67
2023/01/13 01:21:09;;;;;;;21.70;6.50;;;;;;;6.25;78.67;98293.05;105336;1257;98788;-65
2023/01/13 01:23:37;;;;;;;8.80;3.50;;;;;;;6.25;78.40;98286.77;105304;1257;98850;-66
2023/01/13 01:26:07;;;;;;;8.20;2.90;;;;;;;6.29;78.53;98284.27;105391;1264;112202;-65
2023/01/13 01:28:34;;;;;;;6.40;1.80;;;;;;;6.30;78.19;98284.88;105109;1260;99633;-65
2023/01/13 01:31:11;;;;;;;4.10;1.90;;;;;;;6.32;78.25;98287.21;105301;1257;99213;-65
2023/01/13 01:33:40;;;;;;;7.10;3.10;;;;;;;6.33;77.63;98287.02;105344;1257;97992;-65
2023/01/13 01:36:08;;;;;;;9.00;2.80;;;;;;;6.36;77.45;98288.80;105376;1257;99089;-65
2023/01/13 01:38:36;;;;;;;8.60;3.40;;;;;;;6.42;77.10;98286.55;105381;1265;109688;-65
2023/01/13 01:41:03;;;;;;;8.10;3.40;;;;;;;6.48;76.93;98282.85;105329;1255;99105;-64
2023/01/13 01:44:06;;;;;;;5.40;2.00;;;;;;;6.52;76.99;98281.59;105328;1251;108519;-64
2023/01/13 01:46:35;;;;;;;6.10;2.30;;;;;;;6.58;76.44;98284.13;105257;1257;97841;-64
2023/01/13 01:49:25;;;;;;;9.10;3.60;;;;;;;6.59;76.36;98283.45;105290;1266;98916;-64
2023/01/13 01:52:00;;;;;;;9.90;4.40;;;;;;;6.61;76.58;98282.34;105421;1257;110885;-65
2023/01/13 01:54:33;;;;;;;18.50;7.60;;;;;;;6.60;76.43;98270.84;105348;1264;98306;-64
2023/01/13 01:57:01;;;;;;;14.30;6.50;;;;;;;6.59;76.69;98265.25;105259;1256;108514;-64
2023/01/13 01:59:31;;;;;;;7.60;3.30;;;;;;;6.59;76.55;98262.33;105233;1257;98807;-64
2023/01/13 02:01:58;;;;;;;9.80;4.80;;;;;;;6.58;76.60;98260.54;105263;1264;97890;-64
2023/01/13 02:04:35;;;;;;;18.10;11.90;;;;;;;6.60;76.48;98256.91;105275;1257;110938;-64
2023/01/13 02:07:03;;;;;;;8.90;5.30;;;;;;;6.63;76.08;98253.98;105316;1257;99552;-64
2023/01/13 02:09:31;;;;;;;7.90;3.80;;;;;;;6.65;75.94;98248.56;105364;1266;108225;-64
2023/01/13 02:14:45;;;;;;;4.80;1.70;;;;;;;6.66;75.91;98242.39;105336;1254;98061;-64
2023/01/13 02:17:39;;;;;;;2.80;1.80;;;;;;;6.64;76.09;98242.20;105373;1256;111363;-64
2023/01/13 02:20:48;;;;;;;4.60;1.90;;;;;;;6.65;76.21;98242.25;105354;1265;99067;-64
2023/01/13 02:26:51;;;;;;;3.60;1.90;;;;;;;6.70;75.95;98233.55;105333;1257;97910;-62
2023/01/13 02:32:54;;;;;;;3.90;2.00;;;;;;;6.67;76.31;98223.21;105204;1255;113352;-63
2023/01/13 02:35:27;;;;;;;4.60;2.20;;;;;;;6.62;76.47;98220.77;105198;1257;99325;-63
2023/01/13 02:37:58;;;;;;;5.70;2.90;;;;;;;6.59;76.55;98211.58;105355;1255;107667;-66
2023/01/13 02:40:39;;;;;;;5.40;1.80;;;;;;;6.59;76.53;98215.55;105300;1256;97912;-66
2023/01/13 02:46:28;;;;;;;3.80;2.40;;;;;;;6.63;76.37;98215.97;105346;1251;111820;-65
2023/01/13 02:49:03;;;;;;;3.10;2.00;;;;;;;6.62;76.47;98211.91;105323;1257;98822;-65
2023/01/13 02:51:32;;;;;;;5.20;2.70;;;;;;;6.60;76.60;98213.35;105281;1256;108764;-65
2023/01/13 02:54:06;;;;;;;5.40;2.40;;;;;;;6.58;76.77;98217.25;105259;1256;97925;-65
2023/01/13 02:56:39;;;;;;;4.10;2.70;;;;;;;6.56;76.70;98221.32;105373;1257;98014;-66
2023/01/13 02:59:08;;;;;;;5.80;2.70;;;;;;;6.53;76.70;98217.60;105266;1264;112400;-65
2023/01/13 03:01:35;;;;;;;3.10;1.90;;;;;;;6.53;76.47;98211.71;105372;1257;99422;-65
2023/01/13 03:04:14;;;;;;;4.90;2.70;;;;;;;6.52;76.43;98211.25;105309;1255;108303;-65
2023/01/13 03:07:00;;;;;;;3.80;2.40;;;;;;;6.55;76.14;98212.02;105341;1265;97974;-65
2023/01/13 03:09:42;;;;;;;5.20;2.70;;;;;;;6.57;75.98;98211.52;105377;1251;99415;-65
2023/01/13 03:12:15;;;;;;;2.80;1.80;;;;;;;6.59;76.13;98209.68;105284;1264;113079;-64
2023/01/13 03:15:12;;;;;;;1.90;1.40;;;;;;;6.59;76.01;98210.81;105368;1264;99126;-64
2023/01/13 03:17:48;;;;;;;5.20;2.30;;;;;;;6.61;75.93;98211.42;105320;1254;109662;-64
2023/01/13 03:20:24;;;;;;;3.00;2.20;;;;;;;6.64;75.73;98210.62;105299;1265;97966;-65
2023/01/13 03:23:05;;;;;;;2.10;1.30;;;;;;;6.68;75.82;98206.31;105327;1257;98395;-65
2023/01/13 03:25:49;;;;;;;4.90;2.80;;;;;;;6.70;75.57;98205.35;105311;1264;112120;-65
2023/01/13 03:28:28;;;;;;;2.60;1.80;;;;;;;6.72;75.78;98204.44;105276;1256;99086;-65
2023/01/13 03:31:06;;;;;;;4.90;2.40;;;;;;;6.71;75.64;98206.09;105293;1255;109770;-65
2023/01/13 03:33:40;;;;;;;4.70;2.60;;;;;;;6.71;75.45;98206.69;105326;1257;97939;-65
2023/01/13 03:36:10;;;;;;;4.40;2.80;;;;;;;6.72;75.20;98208.64;105369;1257;97794;-65
2023/01/13 03:38:46;;;;;;;4.70;2.30;;;;;;;6.73;75.51;98208.56;105268;1257;111314;-65
2023/01/13 03:41:21;;;;;;;6.60;3.60;;;;;;;6.75;75.54;98206.34;105307;1265;98476;-65
2023/01/13 03:46:49;;;;;;;3.20;2.20;;;;;;;6.79;75.37;98206.88;105300;1264;99188;-64
2023/01/13 03:49:22;;;;;;;6.20;3.20;;;;;;;6.80;75.15;98206.46;105396;1257;98798;-65
2023/01/13 03:51:55;;;;;;;2.80;1.30;;;;;;;6.80;74.80;98201.96;105376;1261;111375;-64
2023/01/13 03:54:26;;;;;;;5.50;2.60;;;;;;;6.81;74.80;98207.11;105408;1255;99272;-65
2023/01/13 03:56:59;;;;;;;6.80;2.70;;;;;;;6.82;74.96;98204.00;105214;1254;108122;-65
2023/01/13 03:59:32;;;;;;;4.00;2.30;;;;;;;6.85;74.84;98201.92;105270;1273;98007;-66
2023/01/13 04:02:05;;;;;;;4.20;2.80;;;;;;;6.88;74.53;98199.59;105248;1264;98293;-70
2023/01/13 04:04:43;;;;;;;2.90;1.80;;;;;;;6.89;74.70;98201.09;105369;1255;111674;-66
2023/01/13 04:07:30;;;;;;;4.20;2.70;;;;;;;6.89;74.79;98199.40;105353;1256;98201;-64
2023/01/13 04:10:05;;;;;;;5.50;3.50;;;;;;;6.89;74.82;98198.20;105344;1251;108206;-65
2023/01/13 04:15:29;;;;;;;4.00;1.90;;;;;;;6.89;74.69;98198.52;105276;1257;98813;-64
2023/01/13 04:18:16;;;;;;;4.80;2.50;;;;;;;6.91;74.77;98202.13;105360;1256;110843;-64
2023/01/13 04:20:45;;;;;;;4.10;2.30;;;;;;;6.95;74.62;98207.62;105338;1254;97966;-65
2023/01/13 04:23:12;;;;;;;4.70;2.50;;;;;;;6.97;74.38;98205.95;105326;1264;108444;-65
2023/01/13 04:25:41;;;;;;;3.50;2.10;;;;;;;7.01;74.31;98211.87;105338;1265;99332;-65
2023/01/13 04:28:09;;;;;;;6.20;3.30;;;;;;;7.00;74.30;98203.71;105354;1264;98316;-64
2023/01/13 04:30:37;;;;;;;3.40;2.20;;;;;;;7.00;74.13;98203.33;105289;1264;112159;-64
2023/01/13 04:33:05;;;;;;;5.10;2.30;;;;;;;7.00;74.37;98202.41;105322;1255;99153;-64
2023/01/13 04:35:33;;;;;;;4.80;2.80;;;;;;;6.98;74.25;98191.82;105333;1261;108550;-64
2023/01/13 04:38:07;;;;;;;3.40;1.80;;;;;;;6.95;73.99;98186.64;105320;1265;97946;-64
2023/01/13 04:40:34;;;;;;;3.30;1.80;;;;;;;6.96;73.82;98192.56;105335;1266;98353;-64
2023/01/13 04:43:02;;;;;;;3.40;1.90;;;;;;;6.98;73.86;98190.89;104966;1266;381285;-64
2023/01/13 04:45:29;;;;;;;4.40;2.60;;;;;;;7.01;73.56;98188.66;105343;1265;98794;-64
2023/01/13 04:48:07;;;;;;;3.90;2.10;;;;;;;7.04;73.46;98185.95;105286;1256;108112;-65
2023/01/13 04:50:35;;;;;;;3.40;1.40;;;;;;;7.04;73.68;98184.15;105310;1257;97922;-64
2023/01/13 04:53:02;;;;;;;4.50;2.30;;;;;;;7.01;73.10;98178.51;105338;1258;97900;-64
2023/01/13 04:55:30;;;;;;;3.00;1.30;;;;;;;7.01;73.32;98179.66;105482;1254;97902;-64
2023/01/13 04:58:03;;;;;;;3.70;1.60;;;;;;;7.00;72.74;98180.83;105323;1273;99213;-64
2023/01/13 05:00:30;;;;;;;4.00;2.00;;;;;;;6.99;72.60;98178.67;105351;1264;107492;-64
2023/01/13 05:02:58;;;;;;;5.00;2.10;;;;;;;7.01;72.83;98182.55;105287;1261;97886;-64
2023/01/13 05:05:27;;;;;;;2.70;1.30;;;;;;;7.02;72.73;98180.52;105345;1267;98808;-64
2023/01/13 05:07:54;;;;;;;3.70;2.30;;;;;;;7.06;72.30;98187.77;105313;1264;111438;-64
2023/01/13 05:10:21;;;;;;;4.30;2.20;;;;;;;7.08;72.31;98189.67;105346;1265;98011;-65
2023/01/13 05:18:21;;;;;;;4.40;2.40;;;;;;;7.05;72.83;98199.71;105332;1255;97998;-64
2023/01/13 05:20:49;;;;;;;3.90;2.30;;;;;;;7.02;72.60;98193.33;105149;1264;98029;-64
2023/01/13 05:26:02;;;;;;;3.50;1.70;;;;;;;7.02;72.36;98194.95;105279;1257;108541;-71
2023/01/13 05:28:33;;;;;;;5.20;2.60;;;;;;;7.01;72.81;98194.38;105321;1264;97998;-65
2023/01/13 05:31:04;;;;;;;3.60;2.00;;;;;;;7.00;72.55;98189.72;105353;1264;97949;-63
2023/01/13 05:33:34;;;;;;;3.30;2.00;;;;;;;6.99;72.71;98189.95;105278;1264;111182;-66
2023/01/13 05:36:02;;;;;;;6.00;4.00;;;;;;;7.00;72.51;98188.14;105337;1257;97955;-65
2023/01/13 05:38:29;;;;;;;4.70;2.60;;;;;;;7.03;72.42;98192.05;105287;1255;108389;-67
2023/01/13 05:44:02;;;;;;;5.30;1.90;;;;;;;7.08;72.27;98185.80;104621;1266;98271;-65
2023/01/13 05:46:29;;;;;;;3.50;1.60;;;;;;;7.10;71.78;98186.38;105154;1264;98017;-64
2023/01/13 05:48:58;;;;;;;3.70;2.40;;;;;;;7.10;71.82;98184.13;105305;1260;97947;-65
2023/01/13 05:51:25;;;;;;;3.60;2.20;;;;;;;7.09;72.20;98190.20;105351;1251;108660;-65
2023/01/13 05:53:53;;;;;;;3.90;2.20;;;;;;;7.06;72.25;98191.30;105307;1255;99198;-65
2023/01/13 05:56:20;;;;;;;4.00;2.10;;;;;;;7.06;71.98;98190.33;105394;1257;97937;-64
2023/01/13 05:58:47;;;;;;;3.90;2.40;;;;;;;7.03;72.58;98195.65;105257;1265;98440;-64
2023/01/13 06:01:14;;;;;;;4.50;2.60;;;;;;;7.02;72.31;98196.88;105286;1267;98813;-65
2023/01/13 06:03:42;;;;;;;5.60;2.50;;;;;;;6.98;72.44;98194.21;105233;1264;99200;-64
2023/01/13 06:06:09;;;;;;;4.00;2.30;;;;;;;6.96;72.31;98195.56;105285;1257;99268;-65
2023/01/13 06:08:36;;;;;;;4.10;2.40;;;;;;;6.98;72.22;98194.94;105232;1267;97888;-64
2023/01/13 06:11:05;;;;;;;14.30;3.80;;;;;;;6.99;71.97;98193.87;105236;1254;112214;-65
2023/01/13 06:13:33;;;;;;;5.50;2.00;;;;;;;7.03;72.04;98197.72;105286;1254;99301;-64
2023/01/13 06:16:00;;;;;;;3.40;2.00;;;;;;;7.03;72.44;98196.84;105232;1263;97981;-64
2023/01/13 06:18:28;;;;;;;5.80;3.30;;;;;;;7.04;71.95;98199.02;105278;1257;97979;-64
2023/01/13 06:20:55;;;;;;;9.10;5.10;;;;;;;7.03;72.08;98196.73;105365;1254;97888;-65
2023/01/13 06:23:23;;;;;;;17.20;10.00;;;;;;;7.04;72.02;98196.30;105349;1265;98670;-64
2023/01/13 06:26:15;;;;;;;7.90;4.30;;;;;;;7.03;71.99;98200.16;105306;1258;97982;-64
2023/01/13 06:28:42;;;;;;;4.00;2.40;;;;;;;7.02;72.00;98199.98;105337;1265;107518;-64
2023/01/13 06:31:10;;;;;;;5.60;2.80;;;;;;;7.03;71.72;98200.83;105359;1254;98395;-64
2023/01/13 06:33:48;;;;;;;4.60;2.20;;;;;;;7.05;71.96;98207.23;105334;1257;98395;-64
2023/01/13 06:36:21;;;;;;;4.70;2.50;;;;;;;7.06;71.86;98202.52;105319;1257;111708;-64
2023/01/13 06:38:53;;;;;;;4.60;2.10;;;;;;;7.08;72.09;98202.11;105368;1255;98564;-64
2023/01/13 06:43:13;;;;;;;8.10;3.60;;;;;;;7.07;72.01;98203.48;105322;1264;108497;-64
2023/01/13 06:44:08;;;;;;;14.20;6.70;;;;;;;7.07;72.20;98203.21;105180;1264;97973;-66
2023/01/13 06:46:36;;;;;;;13.80;6.50;;;;;;;7.04;71.85;98204.02;105268;1257;97825;-65
2023/01/13 06:49:03;;;;;;;5.00;2.50;;;;;;;7.04;71.91;98208.77;105351;1251;98042;-67
2023/01/13 06:51:30;;;;;;;6.60;2.50;;;;;;;7.05;72.03;98213.66;105392;1256;97895;-65
2023/01/13 06:53:58;;;;;;;3.10;1.70;;;;;;;7.02;71.97;98212.56;105318;1254;97945;-64
2023/01/13 06:56:25;;;;;;;6.20;2.90;;;;;;;7.01;72.13;98207.95;105295;1274;97983;-65
2023/01/13 06:58:52;;;;;;;4.40;2.40;;;;;;;6.99;72.37;98208.03;105350;1251;97920;-64
2023/01/13 07:01:19;;;;;;;2.80;1.70;;;;;;;6.99;72.30;98203.41;105306;1254;99236;-64
2023/01/13 07:03:47;;;;;;;6.70;4.20;;;;;;;7.01;71.77;98201.08;105333;1254;97908;-65
2023/01/13 07:06:14;;;;;;;3.90;2.50;;;;;;;7.02;71.96;98198.55;105327;1252;97950;-64
2023/01/13 07:08:41;;;;;;;7.60;4.80;;;;;;;7.02;71.89;98194.68;105361;1255;97940;-64
2023/01/13 07:11:08;;;;;;;11.30;5.90;;;;;;;7.01;71.94;98193.77;105381;1264;97990;-64
2023/01/13 07:16:23;;;;;;;5.00;2.70;;;;;;;7.01;71.80;98199.34;105367;1254;99169;-65
2023/01/13 07:18:51;;;;;;;3.10;2.10;;;;;;;7.02;71.96;98201.73;105274;1256;108613;-64
2023/01/13 07:21:18;;;;;;;4.70;2.30;;;;;;;7.04;71.87;98198.86;105337;1254;97889;-64
2023/01/13 07:23:47;;;;;;;4.30;2.30;;;;;;;7.06;71.66;98199.69;105332;1251;98340;-64
2023/01/13 07:26:15;;;;;;;4.50;2.90;;;;;;;7.09;71.96;98204.08;105387;1251;110707;-64
2023/01/13 07:28:42;;;;;;;11.20;6.20;;;;;;;7.11;71.86;98208.63;105340;1264;99214;-64
2023/01/13 07:31:19;;;;;;;7.60;3.10;;;;;;;7.12;72.01;98204.64;105276;1264;99200;-63
2023/01/13 07:33:47;;;;;;;6.90;3.60;;;;;;;7.13;71.93;98200.58;105284;1264;97837;-64
2023/01/13 07:36:14;;;;;;;4.40;2.40;;;;;;;7.12;71.79;98199.35;105330;1254;98279;-64
2023/01/13 07:38:43;;;;;;;4.90;2.70;;;;;;;7.14;72.15;98198.50;105233;1257;97897;-64
2023/01/13 07:44:03;;;;;;;4.60;2.60;;;;;;;7.14;72.00;98201.71;105325;1265;108121;-63
2023/01/13 07:46:32;;;;;;;5.70;3.20;;;;;;;7.16;71.81;98198.02;105271;1254;98826;-63
2023/01/13 07:48:59;;;;;;;6.60;3.40;;;;;;;7.20;72.11;98193.46;105295;1266;98310;-63
2023/01/13 07:51:26;;;;;;;8.20;4.30;;;;;;;7.24;72.11;98190.62;105126;1257;99154;-64
2023/01/13 07:53:53;;;;;;;9.20;4.40;;;;;;;7.26;72.07;98189.77;105322;1274;98505;-64
2023/01/13 07:56:21;;;;;;;59.70;21.70;;;;;;;7.27;72.28;98183.03;105256;1254;98357;-64
2023/01/13 07:58:49;;;;;;;181.00;59.30;;;;;;;7.25;72.14;98183.73;105336;1267;97961;-63
2023/01/13 08:01:18;;;;;;;63.50;20.80;;;;;;;7.23;72.11;98180.39;105350;1257;98076;-64
2023/01/13 08:03:45;;;;;;;136.90;27.60;;;;;;;7.22;72.23;98184.23;105368;1264;112549;-63
2023/01/13 08:06:13;;;;;;;78.00;17.00;;;;;;;7.22;72.52;98188.11;105209;1265;100314;-63
2023/01/13 08:08:41;;;;;;;32.40;7.10;;;;;;;7.20;72.52;98190.10;105302;1265;108169;-66
2023/01/13 08:11:08;;;;;;;18.50;4.50;;;;;;;7.20;72.97;98192.23;105280;1254;97912;-65
2023/01/13 08:13:35;;;;;;;49.40;11.20;;;;;;;7.20;72.72;98191.08;105344;1266;97902;-65
2023/01/13 08:16:06;;;;;;;17.20;6.90;;;;;;;7.23;72.89;98191.52;105369;1254;98066;-65
2023/01/13 08:18:34;;;;;;;29.40;11.00;;;;;;;7.24;72.90;98192.14;105300;1264;98385;-64
2023/01/13 08:21:05;;;;;;;24.60;8.10;;;;;;;7.25;72.69;98197.36;105255;1255;107449;-64
2023/01/13 08:23:33;;;;;;;36.30;10.60;;;;;;;7.27;72.53;98198.30;105270;1264;97969;-64
2023/01/13 08:26:01;;;;;;;33.10;9.40;;;;;;;7.29;72.82;98202.06;105177;1251;98128;-64
2023/01/13 08:28:29;;;;;;;21.50;5.90;;;;;;;7.31;72.60;98202.96;105149;1265;112920;-64
2023/01/13 08:31:05;;;;;;;18.40;5.30;;;;;;;7.34;72.23;98211.14;105252;1251;98327;-64
2023/01/13 08:33:32;;;;;;;14.70;4.30;;;;;;;7.35;72.64;98211.45;105323;1258;107774;-64
2023/01/13 08:36:05;;;;;;;12.20;4.10;;;;;;;7.37;72.67;98214.41;105368;1254;97924;-63
2023/01/13 08:38:34;;;;;;;9.30;4.60;;;;;;;7.38;72.85;98214.05;105390;1264;98320;-64
2023/01/13 08:41:08;;;;;;;14.80;6.60;;;;;;;7.40;72.50;98215.65;105361;1251;112218;-64
2023/01/13 08:43:35;;;;;;;39.30;11.20;;;;;;;7.42;72.69;98217.87;105320;1251;98163;-63
2023/01/13 08:46:03;;;;;;;13.30;5.50;;;;;;;7.42;72.89;98222.77;105274;1266;107639;-63
2023/01/13 08:48:31;;;;;;;11.30;4.20;;;;;;;7.41;73.07;98223.92;105253;1263;97923;-63
2023/01/13 08:51:07;;;;;;;52.50;13.40;;;;;;;7.38;73.04;98226.92;105333;1261;97881;-63
2023/01/13 08:53:34;;;;;;;14.50;4.90;;;;;;;7.35;73.37;98226.13;105287;1254;111289;-63
2023/01/13 08:56:07;;;;;;;14.60;5.40;;;;;;;7.33;73.62;98229.64;105289;1265;99475;-63
2023/01/13 08:58:34;;;;;;;56.50;14.10;;;;;;;7.32;73.87;98225.80;105398;1254;107743;-64
2023/01/13 09:01:05;;;;;;;25.60;10.00;;;;;;;7.31;74.11;98224.23;105352;1265;98004;-63
2023/01/13 09:03:32;;;;;;;22.00;7.70;;;;;;;7.31;73.49;98222.97;105333;1251;97958;-64
2023/01/13 09:06:02;;;;;;;29.10;11.00;;;;;;;7.33;73.32;98220.20;105230;1257;97882;-63
2023/01/13 09:08:47;;;;;;;13.50;4.70;;;;;;;7.38;72.97;98223.42;105313;1264;99407;-64
2023/01/13 09:14:10;;;;;;;12.50;4.00;;;;;;;7.51;72.82;98235.28;105283;1254;99202;-64
2023/01/13 09:16:37;;;;;;;8.50;3.40;;;;;;;7.54;72.53;98235.00;105271;1250;99226;-64
2023/01/13 09:19:04;;;;;;;17.60;5.40;;;;;;;7.59;72.18;98237.96;105318;1255;99281;-64
2023/01/13 09:21:32;;;;;;;18.60;6.10;;;;;;;7.62;71.99;98230.05;105359;1254;97880;-63
2023/01/13 09:24:00;;;;;;;12.00;4.90;;;;;;;7.66;71.84;98230.74;105378;1255;97908;-63
2023/01/13 09:26:27;;;;;;;25.10;8.70;;;;;;;7.70;71.52;98226.61;105280;1258;97908;-64
2023/01/13 09:28:54;;;;;;;18.70;8.00;;;;;;;7.74;71.38;98221.52;105200;1254;98030;-68
2023/01/13 09:31:22;;;;;;;25.60;9.70;;;;;;;7.77;71.09;98218.01;105289;1254;99238;-65
2023/01/13 09:36:35;;;;;;;7.90;3.20;;;;;;;7.82;70.25;98212.23;105248;1252;107993;-64
2023/01/13 09:39:03;;;;;;;11.20;4.30;;;;;;;7.84;70.06;98207.16;105304;1254;99172;-65
2023/01/13 09:45:03;;;;;;;6.30;2.90;;;;;;;7.99;69.92;98199.30;105380;1264;111472;-64
2023/01/13 09:47:42;;;;;;;11.60;7.50;;;;;;;8.11;69.18;98196.95;105350;1255;99223;-64
2023/01/13 09:50:13;;;;;;;8.10;4.00;;;;;;;8.23;69.28;98193.73;105294;1252;108640;-64
2023/01/13 09:52:44;;;;;;;8.40;5.00;;;;;;;8.36;69.10;98192.27;105388;1264;98407;-65
2023/01/13 09:55:16;;;;;;;17.00;5.80;;;;;;;8.48;68.48;98195.97;105337;1254;97943;-64
2023/01/13 09:57:43;;;;;;;18.90;6.00;;;;;;;8.56;67.93;98197.88;105303;1251;112262;-67
2023/01/13 10:00:36;;;;;;;17.90;6.00;;;;;;;8.60;67.76;98194.95;105439;1251;98166;-64
2023/01/13 10:03:21;;;;;;;11.30;5.10;;;;;;;8.64;68.39;98189.48;105354;1254;108567;-65
2023/01/13 10:06:28;;;;;;;11.50;4.10;;;;;;;8.69;68.14;98188.67;105381;1254;97896;-64
2023/01/13 10:08:56;;;;;;;13.60;5.30;;;;;;;8.73;67.61;98183.75;105342;1255;98258;-64
2023/01/13 10:14:38;;;;;;;12.60;7.10;;;;;;;8.81;66.71;98173.69;104908;1273;98862;-63
2023/01/13 10:17:28;;;;;;;13.30;7.10;;;;;;;8.96;67.31;98171.41;105324;1251;108007;-63
2023/01/13 10:20:14;;;;;;;9.30;3.40;;;;;;;9.12;67.12;98166.32;105341;1254;99201;-63
2023/01/13 10:23:17;;;;;;;5.80;2.80;;;;;;;9.15;65.93;98165.56;105244;1257;97903;-64
2023/01/13 10:25:54;;;;;;;16.60;4.80;;;;;;;9.14;66.08;98168.08;105323;1255;112193;-64
2023/01/13 10:28:22;;;;;;;7.80;3.00;;;;;;;9.19;66.29;98170.18;105331;1254;100509;-64
2023/01/13 10:30:50;;;;;;;12.30;4.70;;;;;;;9.20;65.61;98170.38;105312;1254;108492;-64
2023/01/13 10:33:23;;;;;;;8.40;3.10;;;;;;;9.22;65.83;98171.96;105325;1254;98331;-63
2023/01/13 10:35:59;;;;;;;19.90;6.20;;;;;;;9.23;65.88;98165.69;105354;1255;98007;-63
2023/01/13 10:38:40;;;;;;;21.20;9.30;;;;;;;9.25;66.60;98162.58;105332;1257;111725;-64
2023/01/13 10:41:13;;;;;;;13.90;5.50;;;;;;;9.28;66.00;98153.94;105356;1265;99714;-64
2023/01/13 10:43:57;;;;;;;11.90;3.00;;;;;;;9.28;65.62;98152.26;105349;1254;108442;-64
2023/01/13 10:46:26;;;;;;;5.30;2.60;;;;;;;9.27;65.44;98150.81;105275;1254;97914;-64
2023/01/13 10:48:55;;;;;;;8.40;3.70;;;;;;;9.29;65.28;98145.11;105260;1254;99283;-63
2023/01/13 10:51:27;;;;;;;7.20;2.40;;;;;;;9.34;65.47;98147.61;105300;1264;111796;-70
2023/01/13 10:54:12;;;;;;;12.90;4.30;;;;;;;9.31;64.96;98146.71;105231;1254;98845;-65
2023/01/13 10:56:43;;;;;;;10.70;4.70;;;;;;;9.34;66.21;98140.02;105339;1257;107062;-64
2023/01/13 10:59:28;;;;;;;12.90;6.00;;;;;;;9.33;65.54;98137.02;105294;1266;97925;-65
2023/01/13 11:02:16;;;;;;;7.30;3.00;;;;;;;9.31;65.75;98134.19;105282;1251;97879;-65
2023/01/13 11:04:52;;;;;;;5.80;3.20;;;;;;;9.27;65.82;98136.20;105256;1255;111661;-64
2023/01/13 11:07:33;;;;;;;6.70;3.10;;;;;;;9.23;65.74;98132.89;105373;1256;99255;-66
2023/01/13 11:10:22;;;;;;;13.70;4.50;;;;;;;9.22;65.82;98134.61;105232;1265;109848;-64
2023/01/13 11:12:53;;;;;;;12.70;5.00;;;;;;;9.21;66.06;98133.48;105322;1257;99060;-64
2023/01/13 11:15:30;;;;;;;9.60;4.30;;;;;;;9.21;66.27;98129.05;105318;1254;97932;-64
2023/01/13 11:18:09;;;;;;;6.90;3.20;;;;;;;9.23;66.23;98129.92;105324;1251;111096;-65
2023/01/13 11:20:41;;;;;;;13.00;5.40;;;;;;;9.26;65.66;98129.96;105318;1255;99289;-65
2023/01/13 11:23:24;;;;;;;20.10;7.90;;;;;;;9.30;65.63;98130.80;105342;1267;106048;-65
2023/01/13 11:25:58;;;;;;;7.00;3.70;;;;;;;9.39;65.59;98127.95;105240;1251;97914;-64
2023/01/13 11:28:37;;;;;;;6.60;3.50;;;;;;;9.43;65.05;98120.05;105248;1254;98412;-64
2023/01/13 11:31:20;;;;;;;11.70;5.20;;;;;;;9.45;65.07;98116.61;105156;1254;111251;-65
2023/01/13 11:34:00;;;;;;;7.60;3.30;;;;;;;9.47;65.07;98111.50;105291;1251;99432;-64
2023/01/13 11:36:37;;;;;;;10.30;4.30;;;;;;;9.46;64.58;98115.05;105338;1261;108547;-65
2023/01/13 11:39:26;;;;;;;11.60;4.30;;;;;;;9.46;65.29;98109.58;105190;1254;97926;-64
2023/01/13 11:42:24;;;;;;;10.10;3.90;;;;;;;9.48;65.29;98102.30;105381;1251;97858;-64
2023/01/13 11:45:06;;;;;;;7.80;3.50;;;;;;;9.50;65.01;98096.54;105362;1251;111532;-64
2023/01/13 11:47:35;;;;;;;6.60;3.80;;;;;;;9.53;64.93;98091.75;105338;1260;100088;-64
2023/01/13 11:50:03;;;;;;;7.20;3.90;;;;;;;9.56;64.86;98094.55;105327;1264;108102;-63
2023/01/13 11:53:04;;;;;;;9.80;4.90;;;;;;;9.56;64.86;98093.46;105197;1257;97876;-64
2023/01/13 11:55:46;;;;;;;6.50;2.90;;;;;;;9.54;65.08;98095.00;105237;1254;98059;-64
2023/01/13 11:58:33;;;;;;;9.50;4.10;;;;;;;9.52;64.32;98096.20;105159;1257;112229;-64
2023/01/13 12:01:38;;;;;;;7.10;2.90;;;;;;;9.49;64.52;98092.35;105096;1251;99258;-64
2023/01/13 12:04:40;;;;;;;7.10;3.30;;;;;;;9.46;64.55;98091.85;105310;1251;108624;-64
2023/01/13 12:07:21;;;;;;;8.20;4.20;;;;;;;9.47;64.79;98092.96;105231;1254;97867;-64
2023/01/13 12:10:08;;;;;;;6.40;3.10;;;;;;;9.47;64.99;98088.14;105298;1251;97823;-64
2023/01/13 12:12:59;;;;;;;8.30;3.90;;;;;;;9.48;64.85;98085.44;105189;1254;112656;-66
2023/01/13 12:15:34;;;;;;;6.00;3.30;;;;;;;9.48;64.41;98089.48;105197;1273;98611;-70
2023/01/13 12:18:50;;;;;;;16.00;6.00;;;;;;;9.46;64.12;98088.68;105327;1256;107625;-65
2023/01/13 12:21:25;;;;;;;8.80;4.30;;;;;;;9.46;64.61;98089.66;105330;1254;97921;-65
2023/01/13 12:24:12;;;;;;;10.40;4.60;;;;;;;9.47;64.45;98090.62;105182;1259;98068;-65
2023/01/13 12:26:55;;;;;;;12.60;4.60;;;;;;;9.48;64.72;98087.48;105349;1254;112380;-65
2023/01/13 12:29:30;;;;;;;5.00;2.90;;;;;;;9.48;64.87;98091.45;105275;1252;99756;-64
2023/01/13 12:32:00;;;;;;;9.80;4.40;;;;;;;9.43;64.48;98096.70;105342;1266;107628;-65
2023/01/13 12:34:37;;;;;;;12.30;4.20;;;;;;;9.39;65.05;98091.52;105359;1265;97872;-68
2023/01/13 12:37:37;;;;;;;17.40;6.00;;;;;;;9.33;64.64;98089.38;105303;1251;98184;-65
2023/01/13 12:40:37;;;;;;;9.90;3.50;;;;;;;9.28;64.84;98089.41;105271;1254;112289;-64
2023/01/13 12:46:23;;;;;;;16.60;5.80;;;;;;;9.16;65.19;98089.77;105305;1251;108153;-67